createdAt,value
2022-11-15T00:01:16.277Z,3.10
2022-11-15T00:03:43.723Z,3.00
2022-11-15T00:06:11.200Z,3.00
2022-11-15T00:08:38.535Z,3.00
2022-11-15T00:11:06.005Z,3.00
2022-11-15T00:13:33.605Z,3.00
2022-11-15T00:16:02.776Z,3.00
2022-11-15T00:18:31.140Z,3.00
2022-11-15T00:21:06.454Z,3.00
2022-11-15T00:23:34.820Z,2.90
2022-11-15T00:26:02.414Z,2.90
2022-11-15T00:28:29.753Z,2.90
2022-11-15T00:31:06.054Z,2.90
2022-11-15T00:33:34.062Z,2.80
2022-11-15T00:36:06.988Z,2.80
2022-11-15T00:38:35.900Z,2.80
2022-11-15T00:41:09.305Z,2.80
2022-11-15T00:43:37.867Z,2.80
2022-11-15T00:46:05.728Z,2.80
2022-11-15T00:48:33.297Z,2.70
2022-11-15T00:51:01.149Z,2.60
2022-11-15T00:53:29.144Z,2.60
2022-11-15T00:55:56.798Z,2.50
2022-11-15T00:58:24.184Z,2.50
2022-11-15T01:00:51.918Z,2.50
2022-11-15T01:03:19.245Z,2.40
2022-11-15T01:05:46.584Z,2.40
2022-11-15T01:08:17.913Z,2.40
2022-11-15T01:10:45.225Z,2.40
2022-11-15T01:13:12.597Z,2.40
2022-11-15T01:15:43.411Z,2.40
2022-11-15T01:18:11.072Z,2.50
2022-11-15T01:20:43.387Z,2.50
2022-11-15T01:23:11.061Z,2.60
2022-11-15T01:25:38.474Z,2.80
2022-11-15T01:28:05.942Z,3.00
2022-11-15T01:30:33.295Z,3.20
2022-11-15T01:33:00.915Z,3.30
2022-11-15T01:35:28.189Z,3.40
2022-11-15T01:37:55.463Z,3.60
2022-11-15T01:40:22.989Z,3.50
2022-11-15T01:42:50.246Z,3.50
2022-11-15T01:45:18.122Z,3.60
2022-11-15T01:47:50.178Z,3.70
2022-11-15T01:50:22.335Z,3.60
2022-11-15T01:52:49.779Z,3.60
2022-11-15T01:55:27.117Z,3.70
2022-11-15T01:58:01.527Z,3.60
2022-11-15T02:00:30.454Z,3.70
2022-11-15T02:02:57.887Z,3.70
2022-11-15T02:05:25.923Z,3.60
2022-11-15T02:07:53.372Z,3.60
2022-11-15T02:10:23.374Z,3.60
2022-11-15T02:12:52.185Z,3.50
2022-11-15T02:15:19.667Z,3.50
2022-11-15T02:18:07.898Z,3.50
2022-11-15T02:20:50.209Z,3.60
2022-11-15T02:23:43.459Z,3.50
2022-11-15T02:26:16.420Z,3.60
2022-11-15T02:29:10.105Z,3.50
2022-11-15T02:32:09.688Z,3.60
2022-11-15T02:34:57.779Z,3.60
2022-11-15T02:37:31.101Z,3.60
2022-11-15T02:40:27.947Z,3.60
2022-11-15T02:43:17.971Z,3.50
2022-11-15T02:45:55.079Z,3.60
2022-11-15T02:48:25.675Z,3.60
2022-11-15T02:50:53.754Z,3.60
2022-11-15T02:53:26.752Z,3.50
2022-11-15T02:55:56.364Z,3.50
2022-11-15T02:58:44.799Z,3.40
2022-11-15T03:01:51.282Z,3.40
2022-11-15T03:04:27.833Z,3.20
2022-11-15T03:07:10.462Z,3.20
2022-11-15T03:10:13.268Z,3.20
2022-11-15T03:12:50.490Z,3.10
2022-11-15T03:15:28.238Z,3.00
2022-11-15T03:18:08.073Z,3.10
2022-11-15T03:20:37.182Z,3.00
2022-11-15T03:23:10.305Z,2.90
2022-11-15T03:25:43.049Z,3.00
2022-11-15T03:28:15.052Z,2.90
2022-11-15T03:30:43.925Z,2.80
2022-11-15T03:33:12.786Z,2.80
2022-11-15T03:35:44.750Z,2.70
2022-11-15T03:38:25.925Z,2.70
2022-11-15T03:41:07.233Z,2.60
2022-11-15T03:44:15.161Z,2.60
2022-11-15T03:46:49.682Z,2.60
2022-11-15T03:49:37.911Z,2.60
2022-11-15T03:52:05.886Z,2.60
2022-11-15T03:54:33.348Z,2.70
2022-11-15T03:57:01.474Z,2.70
2022-11-15T03:59:28.823Z,2.60
2022-11-15T04:01:56.369Z,2.60
2022-11-15T04:04:23.702Z,2.50
2022-11-15T04:06:51.008Z,2.40
2022-11-15T04:09:18.282Z,2.30
2022-11-15T04:11:45.592Z,2.30
2022-11-15T04:14:12.820Z,2.20
2022-11-15T04:16:43.864Z,2.20
2022-11-15T04:19:29.711Z,2.20
2022-11-15T04:22:15.463Z,2.10
2022-11-15T04:24:42.894Z,2.10
2022-11-15T04:27:10.278Z,2.10
2022-11-15T04:29:37.745Z,2.00
2022-11-15T04:32:07.255Z,2.00
2022-11-15T04:34:36.608Z,2.00
2022-11-15T04:37:13.144Z,2.00
2022-11-15T04:39:41.501Z,2.00
2022-11-15T04:42:09.407Z,1.90
2022-11-15T04:44:37.177Z,1.90
2022-11-15T04:47:05.058Z,1.90
2022-11-15T04:49:32.397Z,1.90
2022-11-15T04:51:59.855Z,1.90
2022-11-15T04:54:27.258Z,1.80
2022-11-15T04:56:54.550Z,1.80
2022-11-15T04:59:22.013Z,1.90
2022-11-15T05:01:49.323Z,1.90
2022-11-15T05:04:22.422Z,1.80
2022-11-15T05:06:51.708Z,1.80
2022-11-15T05:09:23.093Z,1.80
2022-11-15T05:11:50.358Z,1.70
2022-11-15T05:14:18.359Z,1.70
2022-11-15T05:16:45.820Z,1.70
2022-11-15T05:19:13.094Z,1.70
2022-11-15T05:21:40.908Z,1.70
2022-11-15T05:24:10.802Z,1.60
2022-11-15T05:26:38.172Z,1.60
2022-11-15T05:29:05.663Z,1.50
2022-11-15T05:31:32.976Z,1.50
2022-11-15T05:34:02.452Z,1.50
2022-11-15T05:36:35.011Z,1.50
2022-11-15T05:39:03.295Z,1.50
2022-11-15T05:41:54.428Z,1.50
2022-11-15T05:44:24.266Z,1.60
2022-11-15T05:46:54.751Z,1.50
2022-11-15T05:49:26.284Z,1.60
2022-11-15T05:51:54.318Z,1.50
2022-11-15T05:54:23.564Z,1.50
2022-11-15T05:56:51.348Z,1.50
2022-11-15T05:59:19.653Z,1.60
2022-11-15T06:01:47.255Z,1.50
2022-11-15T06:04:14.729Z,1.40
2022-11-15T06:06:41.962Z,1.50
2022-11-15T06:09:09.217Z,1.50
2022-11-15T06:11:36.498Z,1.50
2022-11-15T06:14:04.443Z,1.50
2022-11-15T06:16:31.975Z,1.50
2022-11-15T06:19:02.140Z,1.50
2022-11-15T06:21:30.458Z,1.40
2022-11-15T06:23:57.696Z,1.30
2022-11-15T06:26:25.306Z,1.30
2022-11-15T06:28:52.779Z,1.30
2022-11-15T06:31:20.263Z,1.30
2022-11-15T06:33:48.691Z,1.30
2022-11-15T06:36:18.069Z,1.30
2022-11-15T06:38:46.595Z,1.30
2022-11-15T06:41:15.316Z,1.40
2022-11-15T06:43:42.892Z,1.40
2022-11-15T06:46:10.799Z,1.40
2022-11-15T06:48:38.085Z,1.40
2022-11-15T06:51:06.322Z,1.60
2022-11-15T06:53:34.419Z,1.60
2022-11-15T06:56:03.192Z,1.60
2022-11-15T06:58:30.641Z,1.60
2022-11-15T07:01:03.581Z,1.70
2022-11-15T07:03:31.269Z,1.80
2022-11-15T07:06:06.635Z,1.90
2022-11-15T07:08:36.095Z,1.90
2022-11-15T07:11:06.960Z,2.00
2022-11-15T07:13:36.069Z,2.10
2022-11-15T07:16:08.784Z,2.10
2022-11-15T07:18:40.223Z,2.20
2022-11-15T07:21:10.173Z,2.30
2022-11-15T07:23:39.367Z,2.50
2022-11-15T07:26:07.844Z,2.70
2022-11-15T07:28:35.402Z,2.80
2022-11-15T07:31:10.011Z,2.80
2022-11-15T07:33:37.576Z,2.80
2022-11-15T07:36:07.521Z,2.90
2022-11-15T07:38:42.165Z,3.00
2022-11-15T07:41:10.747Z,3.30
2022-11-15T07:43:38.153Z,3.30
2022-11-15T07:46:12.801Z,3.50
2022-11-15T07:48:45.312Z,3.70
2022-11-15T07:51:17.592Z,3.90
2022-11-15T07:53:45.507Z,4.00
2022-11-15T07:56:13.541Z,4.10
2022-11-15T07:58:41.333Z,4.20
2022-11-15T08:01:11.055Z,4.30
2022-11-15T08:03:38.731Z,4.40
2022-11-15T08:06:06.370Z,4.50
2022-11-15T08:08:33.714Z,4.70
2022-11-15T08:11:01.536Z,4.80
2022-11-15T08:13:29.117Z,5.00
2022-11-15T08:16:01.783Z,5.20
2022-11-15T08:18:29.201Z,5.30
2022-11-15T08:21:01.107Z,5.30
2022-11-15T08:23:29.294Z,5.40
2022-11-15T08:26:04.390Z,5.40
2022-11-15T08:28:32.784Z,5.40
2022-11-15T08:31:00.078Z,5.50
2022-11-15T08:33:27.516Z,5.60
2022-11-15T08:35:59.297Z,5.70
2022-11-15T08:38:27.340Z,5.80
2022-11-15T08:41:02.659Z,5.90
2022-11-15T08:43:30.500Z,6.00
2022-11-15T08:45:59.914Z,6.20
2022-11-15T08:48:27.603Z,6.50
2022-11-15T08:50:56.651Z,7.20
2022-11-15T08:53:24.384Z,8.40
2022-11-15T08:55:51.980Z,9.50
2022-11-15T08:58:19.295Z,10.70
2022-11-15T09:00:46.681Z,11.80
2022-11-15T09:03:13.977Z,12.90
2022-11-15T09:05:41.214Z,13.60
2022-11-15T09:08:32.402Z,14.20
2022-11-15T09:10:56.231Z,14.80
2022-11-15T09:13:23.597Z,15.40
2022-11-15T09:15:50.986Z,15.90
2022-11-15T09:18:18.305Z,16.00
2022-11-15T09:20:45.660Z,16.50
2022-11-15T09:23:13.012Z,16.80
2022-11-15T09:25:40.215Z,16.90
2022-11-15T09:28:08.782Z,17.30
2022-11-15T09:30:36.358Z,18.00
2022-11-15T09:33:21.927Z,18.40
2022-11-15T09:35:49.339Z,18.60
2022-11-15T09:38:16.629Z,19.20
2022-11-15T09:40:44.070Z,19.40
2022-11-15T09:43:32.438Z,19.70
2022-11-15T09:46:18.386Z,20.60
2022-11-15T09:48:54.628Z,20.80
2022-11-15T09:51:35.262Z,20.70
2022-11-15T09:57:46.282Z,20.90
2022-11-15T10:03:12.514Z,21.80
2022-11-15T10:05:48.898Z,21.90
2022-11-15T10:08:28.120Z,22.10
2022-11-15T10:14:32.774Z,22.10
2022-11-15T10:17:00.045Z,22.60
2022-11-15T10:19:48.952Z,22.30
2022-11-15T10:22:48.250Z,22.30
2022-11-15T10:25:26.168Z,22.00
2022-11-15T10:28:14.841Z,21.80
2022-11-15T10:30:45.649Z,21.00
2022-11-15T10:33:37.840Z,20.00
2022-11-15T10:36:11.416Z,19.10
2022-11-15T10:38:51.055Z,18.60
2022-11-15T10:41:39.006Z,18.00
2022-11-15T10:44:18.309Z,17.50
2022-11-15T10:46:56.465Z,17.00
2022-11-15T10:49:31.481Z,16.80
2022-11-15T10:52:00.002Z,16.70
2022-11-15T10:54:40.915Z,16.60
2022-11-15T10:57:16.103Z,16.70
2022-11-15T11:00:05.888Z,16.60
2022-11-15T11:02:43.268Z,16.50
2022-11-15T11:05:34.156Z,16.50
2022-11-15T11:08:07.479Z,16.40
2022-11-15T11:10:51.150Z,16.40
2022-11-15T11:13:34.985Z,16.20
2022-11-15T11:16:23.475Z,15.90
2022-11-15T11:19:28.080Z,15.80
2022-11-15T11:22:13.182Z,15.50
2022-11-15T11:25:00.560Z,15.40
2022-11-15T11:27:47.449Z,15.20
2022-11-15T11:30:27.826Z,15.30
2022-11-15T11:33:13.921Z,15.40
2022-11-15T11:35:53.217Z,15.60
2022-11-15T11:38:32.957Z,15.50
2022-11-15T11:41:10.161Z,15.20
2022-11-15T11:43:43.318Z,15.20
2022-11-15T11:46:47.184Z,15.20
2022-11-15T11:49:37.281Z,15.40
2022-11-15T11:52:17.647Z,15.80
2022-11-15T11:55:01.269Z,16.20
2022-11-15T11:57:42.202Z,16.50
2022-11-15T12:00:18.623Z,16.80
2022-11-15T12:02:55.245Z,16.80
2022-11-15T12:05:52.969Z,16.90
2022-11-15T12:08:33.874Z,17.10
2022-11-15T12:11:11.098Z,17.20
2022-11-15T12:13:39.913Z,17.50
2022-11-15T12:16:23.213Z,17.60
2022-11-15T12:18:54.692Z,17.70
2022-11-15T12:21:28.825Z,17.90
2022-11-15T12:24:02.174Z,18.50
2022-11-15T12:26:46.717Z,18.70
2022-11-15T12:29:22.356Z,19.00
2022-11-15T12:31:53.022Z,18.90
2022-11-15T12:34:21.037Z,18.90
2022-11-15T12:36:50.361Z,19.10
2022-11-15T12:39:19.334Z,19.20
2022-11-15T12:42:06.572Z,19.30
2022-11-15T12:44:34.352Z,19.70
2022-11-15T12:47:03.729Z,19.90
2022-11-15T12:49:36.994Z,20.40
2022-11-15T12:52:06.258Z,21.10
2022-11-15T12:54:33.707Z,21.20
2022-11-15T12:57:21.270Z,21.60
2022-11-15T13:00:25.407Z,21.50
2022-11-15T13:03:24.753Z,22.10
2022-11-15T13:05:57.716Z,22.60
2022-11-15T13:08:39.410Z,22.70
2022-11-15T13:11:44.858Z,22.70
2022-11-15T13:14:41.306Z,22.80
2022-11-15T13:17:21.728Z,22.70
2022-11-15T13:20:02.826Z,22.80
2022-11-15T13:22:52.117Z,22.30
2022-11-15T13:25:40.665Z,22.10
2022-11-15T13:28:16.932Z,22.20
2022-11-15T13:30:54.041Z,22.40
2022-11-15T13:33:35.543Z,22.60
2022-11-15T13:36:27.342Z,22.10
2022-11-15T13:39:05.912Z,21.80
2022-11-15T13:41:35.908Z,21.80
2022-11-15T13:44:05.359Z,21.40
2022-11-15T13:46:34.519Z,20.90
2022-11-15T13:49:07.174Z,20.40
2022-11-15T13:51:35.090Z,20.00
2022-11-15T13:54:27.710Z,19.60
2022-11-15T13:57:15.126Z,19.00
2022-11-15T13:59:54.686Z,18.70
2022-11-15T14:02:33.841Z,18.30
2022-11-15T14:05:03.257Z,18.00
2022-11-15T14:07:32.110Z,17.60
2022-11-15T14:09:59.707Z,17.20
2022-11-15T14:12:31.898Z,16.80
2022-11-15T14:15:02.425Z,16.50
2022-11-15T14:17:29.709Z,16.20
2022-11-15T14:19:58.127Z,15.90
2022-11-15T14:22:29.929Z,15.70
2022-11-15T14:25:18.214Z,15.50
2022-11-15T14:28:06.671Z,15.30
2022-11-15T14:30:34.045Z,15.10
2022-11-15T14:33:01.568Z,14.90
2022-11-15T14:35:28.879Z,14.60
2022-11-15T14:37:56.304Z,14.50
2022-11-15T14:40:23.955Z,14.30
2022-11-15T14:42:51.532Z,14.20
2022-11-15T14:45:23.510Z,14.00
2022-11-15T14:47:50.871Z,13.90
2022-11-15T14:50:21.024Z,13.60
2022-11-15T14:52:49.253Z,13.50
2022-11-15T14:55:21.585Z,13.30
2022-11-15T14:57:48.944Z,13.20
2022-11-15T15:00:16.763Z,13.10
2022-11-15T15:02:45.600Z,13.00
2022-11-15T15:05:19.120Z,12.90
2022-11-15T15:07:47.106Z,12.70
2022-11-15T15:10:39.487Z,12.50
2022-11-15T15:13:07.623Z,12.40
2022-11-15T15:15:37.686Z,12.30
2022-11-15T15:18:06.236Z,12.10
2022-11-15T15:20:34.427Z,12.00
2022-11-15T15:23:03.337Z,12.00
2022-11-15T15:25:34.197Z,11.80
2022-11-15T15:28:02.856Z,11.70
2022-11-15T15:30:31.778Z,11.50
2022-11-15T15:32:59.790Z,11.40
2022-11-15T15:35:35.523Z,11.40
2022-11-15T15:38:03.959Z,11.30
2022-11-15T15:40:34.683Z,11.10
2022-11-15T15:43:02.101Z,11.00
2022-11-15T15:45:30.986Z,10.70
2022-11-15T15:47:58.511Z,10.70
2022-11-15T15:50:29.094Z,10.60
2022-11-15T15:52:59.878Z,10.50
2022-11-15T15:55:27.858Z,10.50
2022-11-15T15:57:55.524Z,10.50
2022-11-15T16:00:27.315Z,10.50
2022-11-15T16:02:55.027Z,10.50
2022-11-15T16:05:23.656Z,10.40
2022-11-15T16:07:51.291Z,10.40
2022-11-15T16:10:26.769Z,10.30
2022-11-15T16:12:55.238Z,10.30
2022-11-15T16:15:23.822Z,10.30
2022-11-15T16:18:03.259Z,10.30
2022-11-15T16:20:40.636Z,10.30
2022-11-15T16:23:10.269Z,10.30
2022-11-15T16:25:56.822Z,10.30
2022-11-15T16:28:30.167Z,10.20
2022-11-15T16:31:12.056Z,10.10
2022-11-15T16:33:40.434Z,10.00
2022-11-15T16:36:28.656Z,10.00
2022-11-15T16:38:57.692Z,10.00
2022-11-15T16:41:24.932Z,10.10
2022-11-15T16:43:52.848Z,10.10
2022-11-15T16:46:22.408Z,10.20
2022-11-15T16:48:50.357Z,10.10
2022-11-15T16:51:17.962Z,10.10
2022-11-15T16:53:46.178Z,10.10
2022-11-15T16:56:19.075Z,10.10
2022-11-15T16:58:46.462Z,10.10
2022-11-15T17:01:26.166Z,10.10
2022-11-15T17:03:54.296Z,10.10
2022-11-15T17:06:22.753Z,10.00
2022-11-15T17:08:50.198Z,10.00
2022-11-15T17:11:22.175Z,10.00
2022-11-15T17:13:49.913Z,9.90
2022-11-15T17:16:18.708Z,9.80
2022-11-15T17:18:46.163Z,9.80
2022-11-15T17:21:23.187Z,9.80
2022-11-15T17:23:50.677Z,9.70
2022-11-15T17:26:29.517Z,9.60
2022-11-15T17:28:59.725Z,9.50
2022-11-15T17:31:27.500Z,9.50
2022-11-15T17:33:55.305Z,9.60
2022-11-15T17:36:24.065Z,9.60
2022-11-15T17:38:58.210Z,9.70
2022-11-15T17:41:27.526Z,9.70
2022-11-15T17:44:00.036Z,9.70
2022-11-15T17:46:28.520Z,9.60
2022-11-15T17:48:57.510Z,9.60
2022-11-15T17:51:25.266Z,9.60
2022-11-15T17:53:53.547Z,9.60
2022-11-15T17:56:23.039Z,9.60
2022-11-15T17:58:55.658Z,9.50
2022-11-15T18:01:24.918Z,9.50
2022-11-15T18:03:53.798Z,9.40
2022-11-15T18:06:22.864Z,9.40
2022-11-15T18:08:53.622Z,9.30
2022-11-15T18:11:23.902Z,9.30
2022-11-15T18:13:54.352Z,9.20
2022-11-15T18:16:26.345Z,9.20
2022-11-15T18:18:57.523Z,9.10
2022-11-15T18:21:27.351Z,9.10
2022-11-15T18:23:57.283Z,9.00
2022-11-15T18:26:27.905Z,9.00
2022-11-15T18:29:03.684Z,8.90
2022-11-15T18:31:32.373Z,8.80
2022-11-15T18:34:01.527Z,8.80
2022-11-15T18:36:31.172Z,8.70
2022-11-15T18:39:02.768Z,8.70
2022-11-15T18:41:31.110Z,8.60
2022-11-15T18:44:01.266Z,8.60
2022-11-15T18:46:31.607Z,8.60
2022-11-15T18:49:01.322Z,8.50
2022-11-15T18:51:31.457Z,8.50
2022-11-15T18:54:01.398Z,8.40
2022-11-15T18:56:31.590Z,8.40
2022-11-15T18:59:01.249Z,8.30
2022-11-15T19:01:30.106Z,8.30
2022-11-15T19:03:58.928Z,8.20
2022-11-15T19:06:29.208Z,8.20
2022-11-15T19:08:59.058Z,8.10
2022-11-15T19:11:29.241Z,8.10
2022-11-15T19:14:00.005Z,8.00
2022-11-15T19:16:28.479Z,8.00
2022-11-15T19:19:03.465Z,8.00
2022-11-15T19:21:31.823Z,7.90
2022-11-15T19:24:00.211Z,7.90
2022-11-15T19:26:28.899Z,7.80
2022-11-15T19:29:01.862Z,7.70
2022-11-15T19:31:31.713Z,7.60
2022-11-15T19:34:04.930Z,7.60
2022-11-15T19:36:40.972Z,7.50
2022-11-15T19:39:13.072Z,7.50
2022-11-15T19:41:42.844Z,7.40
2022-11-15T19:44:11.132Z,7.30
2022-11-15T19:46:38.933Z,7.30
2022-11-15T19:49:08.367Z,7.20
2022-11-15T19:51:35.714Z,7.20
2022-11-15T19:54:09.089Z,7.10
2022-11-15T19:56:39.057Z,7.00
2022-11-15T19:59:06.441Z,7.00
2022-11-15T20:01:39.597Z,6.80
2022-11-15T20:04:08.527Z,6.60
2022-11-15T20:06:39.838Z,6.60
2022-11-15T20:09:07.901Z,6.60
2022-11-15T20:11:38.246Z,6.60
2022-11-15T20:14:08.232Z,6.60
2022-11-15T20:16:35.676Z,6.70
2022-11-15T20:19:03.034Z,6.70
2022-11-15T20:21:30.363Z,6.60
2022-11-15T20:23:57.961Z,6.60
2022-11-15T20:26:25.819Z,6.60
2022-11-15T20:28:53.341Z,6.50
2022-11-15T20:31:22.015Z,6.40
2022-11-15T20:33:49.261Z,6.40
2022-11-15T20:36:17.001Z,6.40
2022-11-15T20:38:45.634Z,6.40
2022-11-15T20:41:14.099Z,6.40
2022-11-15T20:43:43.936Z,6.40
2022-11-15T20:46:12.778Z,6.40
2022-11-15T20:48:40.742Z,6.30
2022-11-15T20:51:16.592Z,6.30
2022-11-15T20:53:47.444Z,6.30
2022-11-15T20:56:20.317Z,6.20
2022-11-15T20:58:50.607Z,6.20
2022-11-15T21:01:24.003Z,6.10
2022-11-15T21:03:55.998Z,6.10
2022-11-15T21:06:25.743Z,6.00
2022-11-15T21:09:13.151Z,6.00
2022-11-15T21:11:59.038Z,6.00
2022-11-15T21:14:26.292Z,5.90
2022-11-15T21:16:53.544Z,5.80
2022-11-15T21:19:25.853Z,5.70
2022-11-15T21:21:55.422Z,5.70
2022-11-15T21:24:23.777Z,5.70
2022-11-15T21:26:51.981Z,5.60
2022-11-15T21:29:19.793Z,5.60
2022-11-15T21:31:48.316Z,5.60
2022-11-15T21:34:16.236Z,5.60
2022-11-15T21:36:43.932Z,5.50
2022-11-15T21:39:11.210Z,5.40
2022-11-15T21:41:38.535Z,5.40
2022-11-15T21:44:06.185Z,5.40
2022-11-15T21:46:33.720Z,5.40
2022-11-15T21:49:01.475Z,5.30
2022-11-15T21:51:28.810Z,5.30
2022-11-15T21:53:56.787Z,5.20
2022-11-15T21:56:26.009Z,5.20
2022-11-15T21:58:54.264Z,5.10
2022-11-15T22:01:41.111Z,5.10
2022-11-15T22:04:08.455Z,5.10
2022-11-15T22:06:37.342Z,5.00
2022-11-15T22:09:06.115Z,4.90
2022-11-15T22:11:34.379Z,5.00
2022-11-15T22:14:02.181Z,5.00
2022-11-15T22:16:29.577Z,5.00
2022-11-15T22:18:58.858Z,5.10
2022-11-15T22:21:26.375Z,5.10
2022-11-15T22:23:54.479Z,5.10
2022-11-15T22:26:24.028Z,5.10
2022-11-15T22:28:52.066Z,5.10
2022-11-15T22:31:19.676Z,5.20
2022-11-15T22:33:47.217Z,5.20
2022-11-15T22:36:14.612Z,5.20
2022-11-15T22:38:42.017Z,5.20
2022-11-15T22:41:09.723Z,5.20
2022-11-15T22:43:37.346Z,5.20
2022-11-15T22:46:05.736Z,5.20
2022-11-15T22:48:36.741Z,5.20
2022-11-15T22:51:05.446Z,5.20
2022-11-15T22:53:33.306Z,5.20
2022-11-15T22:56:03.549Z,5.20
2022-11-15T22:58:33.003Z,5.20
2022-11-15T23:01:03.045Z,5.10
2022-11-15T23:03:31.345Z,5.10
2022-11-15T23:06:06.393Z,5.10
2022-11-15T23:08:33.940Z,5.10
2022-11-15T23:11:23.776Z,5.10
2022-11-15T23:13:52.636Z,5.00
2022-11-15T23:16:24.149Z,5.10
2022-11-15T23:18:59.605Z,5.10
2022-11-15T23:21:54.389Z,5.10
2022-11-15T23:24:22.658Z,5.20
2022-11-15T23:26:52.707Z,5.20
2022-11-15T23:29:23.226Z,5.10
2022-11-15T23:32:09.217Z,5.10
2022-11-15T23:34:40.921Z,5.10
2022-11-15T23:37:09.565Z,5.10
2022-11-15T23:39:36.988Z,5.10
2022-11-15T23:42:09.057Z,5.10
2022-11-15T23:44:37.151Z,5.10
2022-11-15T23:47:04.515Z,5.10
2022-11-15T23:49:31.863Z,5.10
2022-11-15T23:51:59.291Z,5.00
2022-11-15T23:54:26.819Z,4.80
2022-11-15T23:56:54.334Z,4.80
2022-11-15T23:59:21.696Z,4.70
